createdAt,value
2023-03-05T00:00:49.269Z,2.09
2023-03-05T00:03:15.840Z,1.97
2023-03-05T00:05:42.356Z,1.72
2023-03-05T00:08:08.922Z,1.81
2023-03-05T00:10:35.463Z,1.89
2023-03-05T00:13:02.001Z,1.82
2023-03-05T00:15:28.489Z,1.70
2023-03-05T00:17:55.001Z,1.63
2023-03-05T00:20:21.546Z,1.72
2023-03-05T00:22:48.068Z,2.00
2023-03-05T00:25:14.587Z,2.07
2023-03-05T00:27:41.222Z,1.72
2023-03-05T00:30:08.676Z,1.59
2023-03-05T00:32:36.395Z,1.55
2023-03-05T00:35:03.131Z,1.55
2023-03-05T00:37:29.632Z,1.49
2023-03-05T00:39:57.352Z,1.54
2023-03-05T00:42:23.832Z,1.53
2023-03-05T00:44:50.389Z,1.62
2023-03-05T00:47:18.392Z,1.69
2023-03-05T00:49:45.124Z,1.82
2023-03-05T00:52:11.648Z,1.96
2023-03-05T00:54:38.232Z,1.94
2023-03-05T00:57:05.796Z,1.55
2023-03-05T00:59:32.560Z,1.51
2023-03-05T01:01:59.166Z,1.60
2023-03-05T01:04:25.747Z,1.62
2023-03-05T01:06:52.294Z,1.67
2023-03-05T01:09:19.075Z,1.74
2023-03-05T01:11:45.579Z,1.49
2023-03-05T01:14:12.291Z,1.63
2023-03-05T01:16:38.885Z,1.63
2023-03-05T01:19:05.416Z,1.48
2023-03-05T01:21:32.414Z,1.68
2023-03-05T01:23:59.173Z,1.67
2023-03-05T01:26:25.751Z,1.72
2023-03-05T01:28:52.270Z,1.68
2023-03-05T01:31:19.311Z,1.59
2023-03-05T01:33:46.037Z,1.54
2023-03-05T01:36:15.911Z,1.29
2023-03-05T01:38:43.843Z,1.40
2023-03-05T01:41:11.510Z,1.58
2023-03-05T01:43:38.704Z,1.59
2023-03-05T01:46:28.569Z,1.64
2023-03-05T01:49:04.294Z,1.75
2023-03-05T01:51:36.848Z,1.67
2023-03-05T01:54:06.336Z,1.84
2023-03-05T01:56:33.043Z,1.73
2023-03-05T01:59:03.644Z,1.39
2023-03-05T02:01:51.832Z,1.27
2023-03-05T02:04:22.254Z,1.26
2023-03-05T02:06:49.785Z,1.57
2023-03-05T02:09:16.803Z,1.72
2023-03-05T02:11:43.741Z,1.44
2023-03-05T02:14:10.553Z,1.30
2023-03-05T02:16:38.419Z,1.21
2023-03-05T02:19:11.000Z,1.09
2023-03-05T02:21:44.037Z,1.23
2023-03-05T02:24:16.045Z,1.23
2023-03-05T02:26:44.868Z,1.26
2023-03-05T02:29:15.870Z,1.38
2023-03-05T02:31:43.197Z,1.21
2023-03-05T02:34:09.785Z,1.06
2023-03-05T02:36:36.288Z,1.14
2023-03-05T02:39:03.677Z,1.37
2023-03-05T02:41:30.332Z,1.63
2023-03-05T02:43:58.561Z,1.64
2023-03-05T02:46:25.549Z,1.23
2023-03-05T02:48:52.295Z,1.05
2023-03-05T02:51:18.969Z,1.34
2023-03-05T02:53:46.627Z,1.23
2023-03-05T02:56:14.005Z,1.17
2023-03-05T02:58:40.556Z,1.18
2023-03-05T03:01:08.747Z,1.03
2023-03-05T03:03:35.533Z,1.07
2023-03-05T03:06:02.281Z,1.05
2023-03-05T03:08:28.843Z,1.21
2023-03-05T03:10:56.506Z,1.36
2023-03-05T03:13:26.010Z,1.44
2023-03-05T03:16:02.400Z,1.14
2023-03-05T03:18:28.916Z,1.33
2023-03-05T03:20:55.436Z,1.50
2023-03-05T03:23:21.941Z,1.40
2023-03-05T03:25:48.459Z,1.15
2023-03-05T03:28:14.944Z,1.01
2023-03-05T03:30:41.573Z,1.11
2023-03-05T03:33:08.142Z,1.27
2023-03-05T03:35:34.756Z,1.33
2023-03-05T03:38:01.248Z,1.15
2023-03-05T03:40:27.793Z,1.07
2023-03-05T03:42:54.753Z,1.41
2023-03-05T03:45:24.195Z,1.61
2023-03-05T03:47:51.960Z,1.44
2023-03-05T03:50:18.891Z,1.49
2023-03-05T03:52:45.415Z,1.25
2023-03-05T03:55:11.890Z,0.98
2023-03-05T03:57:38.551Z,0.77
2023-03-05T04:00:10.951Z,0.84
2023-03-05T04:02:41.573Z,0.74
2023-03-05T04:05:08.869Z,0.72
2023-03-05T04:07:35.382Z,0.72
2023-03-05T04:10:02.035Z,0.67
2023-03-05T04:12:28.500Z,0.76
2023-03-05T04:14:55.129Z,0.99
2023-03-05T04:17:21.698Z,0.91
2023-03-05T04:19:48.218Z,0.80
2023-03-05T04:22:17.237Z,0.70
2023-03-05T04:24:44.337Z,0.69
2023-03-05T04:27:11.866Z,0.88
2023-03-05T04:29:38.633Z,1.14
2023-03-05T04:32:06.382Z,0.90
2023-03-05T04:34:33.429Z,0.85
2023-03-05T04:37:00.043Z,0.80
2023-03-05T04:39:26.718Z,0.78
2023-03-05T04:41:53.260Z,0.77
2023-03-05T04:44:19.783Z,0.78
2023-03-05T04:46:46.334Z,0.99
2023-03-05T04:49:13.115Z,0.85
2023-03-05T04:51:39.661Z,0.75
2023-03-05T04:54:06.222Z,0.62
2023-03-05T04:56:32.812Z,0.70
2023-03-05T04:58:59.988Z,0.79
2023-03-05T05:01:26.754Z,0.95
2023-03-05T05:03:53.276Z,1.06
2023-03-05T05:06:19.839Z,1.21
2023-03-05T05:08:46.321Z,0.90
2023-03-05T05:11:14.372Z,0.66
2023-03-05T05:13:40.905Z,0.87
2023-03-05T05:16:08.565Z,1.00
2023-03-05T05:18:35.617Z,0.89
2023-03-05T05:21:02.147Z,1.18
2023-03-05T05:23:28.724Z,0.86
2023-03-05T05:26:02.856Z,1.09
2023-03-05T05:28:29.897Z,0.98
2023-03-05T05:30:56.421Z,1.03
2023-03-05T05:33:23.690Z,1.20
2023-03-05T05:35:50.789Z,1.24
2023-03-05T05:38:17.767Z,1.02
2023-03-05T05:40:44.480Z,0.95
2023-03-05T05:43:10.989Z,0.90
2023-03-05T05:45:38.601Z,0.80
2023-03-05T05:48:05.171Z,1.07
2023-03-05T05:50:31.775Z,1.19
2023-03-05T05:52:58.270Z,1.19
2023-03-05T05:55:24.917Z,1.27
2023-03-05T05:57:51.392Z,1.58
2023-03-05T06:00:18.289Z,1.72
2023-03-05T06:02:44.864Z,1.63
2023-03-05T06:05:14.766Z,1.65
2023-03-05T06:07:41.540Z,1.83
2023-03-05T06:10:09.922Z,1.72
2023-03-05T06:12:36.420Z,2.00
2023-03-05T06:15:02.968Z,1.99
2023-03-05T06:17:31.016Z,2.06
2023-03-05T06:19:58.725Z,1.98
2023-03-05T06:22:25.589Z,1.94
2023-03-05T06:24:52.307Z,2.02
2023-03-05T06:27:18.909Z,2.08
2023-03-05T06:29:45.537Z,2.05
2023-03-05T06:32:12.162Z,2.04
2023-03-05T06:34:38.776Z,2.04
2023-03-05T06:37:05.350Z,2.16
2023-03-05T06:39:31.869Z,2.16
2023-03-05T06:41:58.421Z,2.19
2023-03-05T06:44:25.689Z,2.22
2023-03-05T06:46:52.296Z,2.29
2023-03-05T06:49:18.918Z,2.30
2023-03-05T06:51:45.470Z,2.26
2023-03-05T06:54:15.004Z,2.44
2023-03-05T06:56:44.218Z,2.30
2023-03-05T06:59:11.910Z,2.48
2023-03-05T07:01:38.739Z,2.60
2023-03-05T07:04:06.777Z,2.52
2023-03-05T07:06:36.274Z,2.64
2023-03-05T07:09:04.198Z,2.59
2023-03-05T07:11:31.140Z,2.73
2023-03-05T07:13:57.882Z,2.70
2023-03-05T07:16:27.305Z,2.82
2023-03-05T07:18:54.760Z,2.78
2023-03-05T07:21:23.963Z,2.92
2023-03-05T07:23:52.936Z,2.93
2023-03-05T07:26:20.190Z,2.86
2023-03-05T07:28:47.142Z,2.98
2023-03-05T07:31:21.192Z,3.04
2023-03-05T07:33:50.984Z,3.03
2023-03-05T07:36:17.555Z,3.09
2023-03-05T07:38:44.448Z,3.10
2023-03-05T07:41:13.707Z,3.11
2023-03-05T07:43:40.405Z,3.20
2023-03-05T07:46:08.956Z,3.20
2023-03-05T07:48:35.682Z,3.25
2023-03-05T07:51:03.583Z,3.14
2023-03-05T07:53:30.467Z,3.16
2023-03-05T07:55:57.057Z,3.15
2023-03-05T07:58:23.566Z,3.16
2023-03-05T08:00:50.089Z,3.14
2023-03-05T08:03:16.697Z,3.32
2023-03-05T08:05:43.511Z,3.43
2023-03-05T08:08:10.181Z,3.38
2023-03-05T08:10:37.819Z,3.41
2023-03-05T08:13:04.706Z,3.35
2023-03-05T08:15:34.144Z,3.27
2023-03-05T08:18:01.567Z,3.22
2023-03-05T08:20:28.094Z,3.38
2023-03-05T08:22:54.579Z,3.43
2023-03-05T08:25:21.565Z,3.23
2023-03-05T08:27:48.714Z,3.16
2023-03-05T08:30:19.247Z,3.21
2023-03-05T08:32:45.890Z,3.07
2023-03-05T08:35:12.490Z,3.18
2023-03-05T08:37:39.098Z,3.10
2023-03-05T08:40:06.516Z,3.19
2023-03-05T08:42:33.108Z,3.22
2023-03-05T08:44:59.742Z,3.14
2023-03-05T08:47:27.321Z,3.07
2023-03-05T08:49:55.635Z,3.06
2023-03-05T08:52:23.210Z,3.39
2023-03-05T08:54:49.973Z,3.50
2023-03-05T08:57:16.732Z,3.40
2023-03-05T08:59:43.274Z,3.31
2023-03-05T09:02:13.756Z,3.20
2023-03-05T09:04:40.707Z,3.12
2023-03-05T09:07:07.752Z,3.21
2023-03-05T09:09:34.301Z,3.45
2023-03-05T09:12:01.276Z,3.48
2023-03-05T09:14:28.653Z,3.44
2023-03-05T09:16:56.682Z,3.50
2023-03-05T09:19:23.476Z,3.69
2023-03-05T09:21:50.124Z,3.78
2023-03-05T09:24:16.646Z,3.72
2023-03-05T09:26:44.122Z,3.52
2023-03-05T09:29:10.839Z,3.75
2023-03-05T09:31:37.844Z,3.95
2023-03-05T09:34:05.986Z,3.69
2023-03-05T09:36:33.290Z,3.75
2023-03-05T09:39:00.003Z,4.00
2023-03-05T09:41:30.216Z,4.02
2023-03-05T09:44:23.554Z,4.02
2023-03-05T09:47:11.601Z,4.07
2023-03-05T09:49:58.114Z,4.13
2023-03-05T09:52:34.650Z,4.00
2023-03-05T09:55:02.565Z,4.27
2023-03-05T09:57:45.712Z,4.22
2023-03-05T10:00:27.171Z,4.37
2023-03-05T10:02:59.592Z,3.99
2023-03-05T10:06:12.364Z,4.19
2023-03-05T10:08:46.812Z,4.27
2023-03-05T10:11:31.286Z,4.44
2023-03-05T10:13:57.789Z,4.29
2023-03-05T10:16:51.231Z,4.32
2023-03-05T10:19:44.806Z,4.36
2023-03-05T10:22:28.471Z,4.45
2023-03-05T10:25:17.158Z,4.32
2023-03-05T10:27:59.426Z,4.34
2023-03-05T10:30:39.268Z,4.28
2023-03-05T10:33:20.164Z,4.20
2023-03-05T10:36:04.282Z,4.07
2023-03-05T10:38:39.665Z,4.28
2023-03-05T10:41:22.656Z,4.24
2023-03-05T10:43:55.406Z,4.19
2023-03-05T10:46:29.079Z,4.20
2023-03-05T10:49:01.321Z,4.21
2023-03-05T10:51:39.321Z,4.31
2023-03-05T10:54:25.256Z,4.30
2023-03-05T10:57:20.905Z,4.33
2023-03-05T10:59:53.701Z,4.24
2023-03-05T11:02:21.977Z,4.21
2023-03-05T11:04:49.971Z,4.32
2023-03-05T11:07:16.361Z,4.43
2023-03-05T11:09:43.949Z,4.66
2023-03-05T11:12:20.025Z,4.77
2023-03-05T11:15:07.183Z,4.82
2023-03-05T11:17:38.762Z,4.84
2023-03-05T11:20:28.894Z,4.81
2023-03-05T11:23:10.777Z,4.66
2023-03-05T11:26:18.804Z,4.81
2023-03-05T11:28:48.309Z,4.74
2023-03-05T11:31:18.264Z,4.76
2023-03-05T11:34:04.047Z,4.67
2023-03-05T11:36:38.931Z,4.63
2023-03-05T11:39:10.632Z,4.81
2023-03-05T11:41:42.211Z,4.69
2023-03-05T11:44:43.455Z,4.49
2023-03-05T11:47:35.886Z,4.30
2023-03-05T11:50:16.982Z,4.46
2023-03-05T11:52:57.262Z,4.72
2023-03-05T11:55:32.564Z,4.88
2023-03-05T11:58:24.573Z,4.97
2023-03-05T12:00:51.153Z,4.87
2023-03-05T12:03:22.547Z,4.96
2023-03-05T12:05:54.086Z,4.91
2023-03-05T12:08:31.951Z,5.06
2023-03-05T12:11:03.880Z,4.99
2023-03-05T12:13:42.500Z,5.61
2023-03-05T12:16:24.260Z,5.38
2023-03-05T12:19:23.910Z,5.06
2023-03-05T12:21:52.581Z,4.76
2023-03-05T12:24:27.874Z,4.72
2023-03-05T12:27:02.044Z,4.71
2023-03-05T12:29:33.322Z,4.60
2023-03-05T12:32:01.309Z,4.52
2023-03-05T12:34:40.485Z,4.30
2023-03-05T12:37:12.574Z,4.29
2023-03-05T12:39:45.492Z,4.31
2023-03-05T12:42:30.371Z,4.28
2023-03-05T12:45:12.347Z,4.29
2023-03-05T12:47:40.599Z,4.26
2023-03-05T12:50:29.008Z,4.20
2023-03-05T12:52:59.650Z,4.18
2023-03-05T12:55:35.988Z,4.44
2023-03-05T12:58:14.000Z,4.45
2023-03-05T13:00:53.445Z,4.42
2023-03-05T13:03:27.137Z,4.40
2023-03-05T13:05:56.618Z,4.58
2023-03-05T13:08:31.570Z,4.60
2023-03-05T13:11:02.012Z,4.79
2023-03-05T13:13:31.065Z,4.88
2023-03-05T13:15:57.744Z,4.82
2023-03-05T13:18:27.469Z,4.96
2023-03-05T13:21:17.080Z,4.97
2023-03-05T13:23:57.857Z,5.05
2023-03-05T13:26:37.427Z,5.12
2023-03-05T13:29:14.911Z,5.12
2023-03-05T13:31:46.447Z,5.07
2023-03-05T13:34:46.783Z,5.01
2023-03-05T13:37:23.814Z,5.07
2023-03-05T13:39:55.196Z,4.90
2023-03-05T13:42:28.441Z,4.90
2023-03-05T13:44:59.691Z,4.65
2023-03-05T13:47:31.982Z,4.75
2023-03-05T13:50:00.436Z,4.56
2023-03-05T13:52:30.845Z,4.45
2023-03-05T13:55:01.677Z,4.43
2023-03-05T13:57:40.728Z,4.37
2023-03-05T14:00:24.955Z,4.64
2023-03-05T14:02:53.077Z,4.59
2023-03-05T14:05:19.951Z,4.55
2023-03-05T14:07:51.178Z,4.54
2023-03-05T14:10:37.626Z,4.44
2023-03-05T14:13:26.969Z,4.32
2023-03-05T14:16:05.244Z,4.30
2023-03-05T14:18:31.785Z,4.21
2023-03-05T14:21:00.136Z,3.96
2023-03-05T14:23:37.332Z,4.08
2023-03-05T14:26:28.626Z,4.11
2023-03-05T14:28:55.548Z,4.04
2023-03-05T14:31:23.322Z,3.91
2023-03-05T14:33:51.030Z,3.87
2023-03-05T14:36:24.021Z,3.86
2023-03-05T14:38:52.262Z,3.95
2023-03-05T14:41:40.059Z,3.98
2023-03-05T14:44:15.096Z,4.00
2023-03-05T14:46:42.655Z,4.02
2023-03-05T14:49:09.744Z,4.12
2023-03-05T14:51:41.264Z,4.09
2023-03-05T14:54:18.789Z,4.06
2023-03-05T14:56:45.264Z,4.00
2023-03-05T14:59:11.788Z,3.75
2023-03-05T15:01:38.396Z,3.92
2023-03-05T15:04:04.945Z,4.16
2023-03-05T15:06:34.223Z,4.00
2023-03-05T15:09:02.064Z,4.22
2023-03-05T15:11:28.595Z,4.33
2023-03-05T15:13:55.153Z,4.34
2023-03-05T15:16:22.020Z,4.40
2023-03-05T15:18:48.814Z,4.54
2023-03-05T15:21:15.640Z,4.54
2023-03-05T15:23:44.116Z,4.45
2023-03-05T15:26:13.856Z,4.69
2023-03-05T15:28:40.914Z,4.78
2023-03-05T15:31:08.278Z,4.55
2023-03-05T15:33:35.200Z,4.68
2023-03-05T15:36:01.781Z,4.68
2023-03-05T15:38:28.330Z,4.71
2023-03-05T15:40:54.834Z,4.77
2023-03-05T15:43:21.309Z,4.79
2023-03-05T15:45:48.114Z,4.68
2023-03-05T15:48:14.778Z,4.63
2023-03-05T15:50:43.347Z,4.58
2023-03-05T15:53:13.091Z,4.67
2023-03-05T15:55:40.917Z,4.59
2023-03-05T15:58:07.778Z,4.59
2023-03-05T16:00:37.083Z,4.63
2023-03-05T16:03:03.999Z,4.52
2023-03-05T16:05:30.606Z,4.36
2023-03-05T16:07:58.473Z,4.33
2023-03-05T16:10:28.115Z,4.35
2023-03-05T16:13:09.396Z,4.11
2023-03-05T16:15:39.533Z,3.86
2023-03-05T16:18:10.361Z,4.09
2023-03-05T16:20:37.693Z,4.04
2023-03-05T16:23:05.505Z,4.09
2023-03-05T16:25:32.472Z,3.77
2023-03-05T16:27:58.987Z,3.61
2023-03-05T16:30:25.501Z,3.71
2023-03-05T16:32:53.715Z,3.55
2023-03-05T16:35:20.551Z,3.71
2023-03-05T16:37:47.606Z,3.67
2023-03-05T16:40:14.365Z,3.58
2023-03-05T16:42:41.879Z,3.47
2023-03-05T16:45:09.586Z,3.58
2023-03-05T16:47:36.114Z,3.46
2023-03-05T16:50:02.831Z,3.50
2023-03-05T16:52:30.370Z,3.52
2023-03-05T16:54:56.830Z,3.50
2023-03-05T16:57:25.395Z,3.21
2023-03-05T16:59:52.672Z,3.17
2023-03-05T17:02:19.169Z,3.16
2023-03-05T17:04:46.064Z,3.12
2023-03-05T17:07:12.633Z,2.96
2023-03-05T17:09:39.232Z,3.26
2023-03-05T17:12:05.889Z,3.17
2023-03-05T17:14:32.454Z,3.14
2023-03-05T17:16:59.053Z,2.98
2023-03-05T17:19:25.622Z,2.94
2023-03-05T17:21:52.339Z,2.98
2023-03-05T17:24:22.282Z,3.04
2023-03-05T17:26:50.022Z,3.22
2023-03-05T17:29:18.758Z,3.22
2023-03-05T17:31:46.296Z,3.28
2023-03-05T17:34:12.814Z,3.23
2023-03-05T17:36:39.397Z,3.21
2023-03-05T17:39:06.045Z,3.04
2023-03-05T17:41:32.505Z,3.02
2023-03-05T17:43:58.964Z,3.07
2023-03-05T17:46:25.855Z,3.05
2023-03-05T17:48:52.342Z,3.13
2023-03-05T17:51:18.864Z,3.21
2023-03-05T17:53:45.502Z,3.02
2023-03-05T17:56:13.217Z,2.86
2023-03-05T17:58:40.912Z,2.74
2023-03-05T18:01:08.258Z,2.78
2023-03-05T18:03:36.322Z,2.94
2023-03-05T18:06:03.733Z,3.05
2023-03-05T18:08:30.424Z,2.81
2023-03-05T18:10:56.896Z,2.67
2023-03-05T18:13:23.384Z,2.55
2023-03-05T18:15:49.911Z,2.53
2023-03-05T18:18:18.163Z,2.79
2023-03-05T18:20:45.447Z,2.89
2023-03-05T18:23:12.116Z,2.84
2023-03-05T18:25:38.755Z,2.82
2023-03-05T18:28:11.051Z,2.89
2023-03-05T18:30:38.175Z,2.78
2023-03-05T18:33:05.065Z,2.70
2023-03-05T18:35:33.391Z,2.64
2023-03-05T18:38:00.412Z,2.63
2023-03-05T18:40:29.504Z,2.48
2023-03-05T18:42:55.984Z,2.55
2023-03-05T18:45:23.163Z,2.67
2023-03-05T18:47:53.945Z,2.49
2023-03-05T18:50:21.717Z,2.57
2023-03-05T18:52:48.245Z,2.61
2023-03-05T18:55:17.532Z,2.85
2023-03-05T18:57:44.108Z,2.76
2023-03-05T19:00:27.035Z,2.45
2023-03-05T19:02:54.157Z,2.17
2023-03-05T19:05:21.368Z,2.07
2023-03-05T19:07:48.245Z,2.33
2023-03-05T19:10:16.212Z,2.35
2023-03-05T19:12:49.642Z,2.54
2023-03-05T19:15:16.810Z,2.44
2023-03-05T19:17:43.346Z,2.45
2023-03-05T19:20:13.391Z,2.38
2023-03-05T19:22:40.374Z,2.40
2023-03-05T19:25:08.466Z,2.59
2023-03-05T19:27:35.019Z,2.38
2023-03-05T19:30:01.555Z,2.50
2023-03-05T19:32:28.198Z,2.37
2023-03-05T19:34:57.026Z,2.33
2023-03-05T19:37:24.738Z,2.39
2023-03-05T19:39:51.678Z,2.40
2023-03-05T19:42:18.368Z,2.20
2023-03-05T19:44:44.857Z,2.15
2023-03-05T19:47:11.367Z,2.28
2023-03-05T19:49:37.946Z,2.32
2023-03-05T19:52:06.130Z,2.35
2023-03-05T19:54:32.981Z,2.26
2023-03-05T19:57:00.036Z,2.18
2023-03-05T19:59:26.693Z,2.30
2023-03-05T20:01:53.641Z,2.43
2023-03-05T20:04:23.155Z,2.11
2023-03-05T20:06:49.902Z,1.96
2023-03-05T20:09:16.534Z,1.91
2023-03-05T20:11:43.579Z,2.06
2023-03-05T20:14:10.303Z,2.00
2023-03-05T20:16:40.595Z,2.09
2023-03-05T20:19:08.111Z,1.77
2023-03-05T20:21:38.504Z,1.83
2023-03-05T20:24:09.806Z,1.81
2023-03-05T20:26:38.220Z,2.00
2023-03-05T20:29:05.360Z,2.22
2023-03-05T20:31:36.653Z,2.28
2023-03-05T20:34:07.939Z,2.07
2023-03-05T20:36:37.281Z,2.25
2023-03-05T20:39:05.581Z,2.13
2023-03-05T20:41:34.137Z,1.75
2023-03-05T20:44:00.947Z,1.59
2023-03-05T20:46:29.995Z,1.65
2023-03-05T20:48:59.113Z,1.65
2023-03-05T20:51:27.381Z,1.69
2023-03-05T20:53:58.095Z,1.76
2023-03-05T20:56:26.227Z,1.64
2023-03-05T20:58:52.682Z,1.63
2023-03-05T21:01:19.217Z,1.87
2023-03-05T21:03:45.674Z,2.08
2023-03-05T21:06:12.268Z,2.11
2023-03-05T21:08:38.893Z,1.96
2023-03-05T21:11:09.565Z,2.28
2023-03-05T21:13:36.628Z,2.25
2023-03-05T21:16:08.414Z,2.10
2023-03-05T21:18:35.594Z,1.87
2023-03-05T21:21:02.439Z,1.89
2023-03-05T21:23:28.956Z,2.10
2023-03-05T21:25:55.460Z,2.23
2023-03-05T21:28:22.040Z,1.87
2023-03-05T21:30:51.925Z,1.88
2023-03-05T21:33:23.244Z,2.21
2023-03-05T21:35:52.628Z,1.99
2023-03-05T21:38:22.978Z,1.79
2023-03-05T21:40:50.323Z,1.90
2023-03-05T21:43:19.325Z,1.93
2023-03-05T21:45:47.197Z,1.76
2023-03-05T21:48:14.325Z,1.68
2023-03-05T21:50:43.718Z,1.69
2023-03-05T21:53:12.052Z,1.58
2023-03-05T21:55:55.071Z,1.47
2023-03-05T21:58:21.526Z,1.40
2023-03-05T22:00:47.992Z,1.43
2023-03-05T22:03:14.494Z,1.43
2023-03-05T22:05:43.349Z,1.38
2023-03-05T22:08:09.885Z,1.29
2023-03-05T22:10:36.464Z,1.24
2023-03-05T22:13:09.937Z,1.54
2023-03-05T22:15:56.927Z,1.58
2023-03-05T22:18:26.442Z,1.78
2023-03-05T22:20:53.585Z,1.70
2023-03-05T22:23:22.723Z,1.42
2023-03-05T22:26:05.250Z,1.33
2023-03-05T22:28:32.933Z,1.66
2023-03-05T22:30:59.455Z,1.51
2023-03-05T22:33:27.009Z,1.55
2023-03-05T22:35:54.101Z,1.14
2023-03-05T22:38:21.201Z,1.04
2023-03-05T22:40:49.237Z,1.30
2023-03-05T22:43:16.824Z,1.29
2023-03-05T22:45:43.379Z,1.15
2023-03-05T22:48:10.811Z,1.21
2023-03-05T22:50:41.902Z,1.26
2023-03-05T22:53:08.490Z,1.14
2023-03-05T22:55:38.962Z,1.20
2023-03-05T22:58:05.447Z,1.46
2023-03-05T23:00:31.944Z,1.31
2023-03-05T23:02:58.413Z,1.24
2023-03-05T23:05:24.902Z,1.32
2023-03-05T23:07:51.420Z,1.40
2023-03-05T23:10:26.331Z,1.23
2023-03-05T23:12:54.475Z,1.31
2023-03-05T23:15:23.950Z,1.21
2023-03-05T23:17:50.597Z,0.99
2023-03-05T23:20:20.827Z,0.92
2023-03-05T23:22:47.679Z,0.94
2023-03-05T23:25:15.889Z,1.15
2023-03-05T23:27:42.685Z,1.41
2023-03-05T23:30:17.024Z,1.73
2023-03-05T23:32:50.061Z,1.62
2023-03-05T23:35:29.091Z,1.35
2023-03-05T23:37:57.613Z,1.66
2023-03-05T23:40:40.357Z,1.63
2023-03-05T23:43:06.817Z,1.65
2023-03-05T23:45:33.748Z,1.49
2023-03-05T23:48:00.581Z,1.56
2023-03-05T23:50:32.978Z,1.59
2023-03-05T23:53:01.961Z,1.55
2023-03-05T23:55:32.478Z,1.79
2023-03-05T23:57:59.107Z,1.44
